createdAt,value
2023-03-23T15:58:30.456Z,18.30
2023-03-23T16:00:58.466Z,22.00
2023-03-23T16:03:27.985Z,23.00
2023-03-23T16:05:57.170Z,23.20
2023-03-23T16:08:24.204Z,20.70
2023-03-23T16:10:52.232Z,19.80
2023-03-23T16:13:21.375Z,21.20
2023-03-23T16:15:47.970Z,18.90
2023-03-23T16:18:20.992Z,19.50
2023-03-23T16:20:48.857Z,20.60
2023-03-23T16:23:15.968Z,20.40
2023-03-23T16:25:43.189Z,21.80
2023-03-23T16:28:13.176Z,23.40
2023-03-23T16:30:41.739Z,22.90
2023-03-23T16:33:08.526Z,23.70
2023-03-23T16:35:35.892Z,22.30
2023-03-23T16:38:09.459Z,24.20
2023-03-23T16:40:39.248Z,26.10
2023-03-23T16:43:09.021Z,24.70
2023-03-23T16:45:37.653Z,25.90
2023-03-23T16:48:04.842Z,24.60
2023-03-23T16:50:33.357Z,24.80
2023-03-23T16:53:01.033Z,27.10
2023-03-23T16:55:27.900Z,23.80
2023-03-23T16:58:13.158Z,27.70
2023-03-23T17:00:48.829Z,28.30
2023-03-23T17:05:44.325Z,31.80
2023-03-23T17:08:11.641Z,34.40
2023-03-23T17:10:43.164Z,32.60
2023-03-23T17:13:10.494Z,36.00
2023-03-23T17:15:39.588Z,26.80
2023-03-23T17:20:35.072Z,38.80
2023-03-23T17:23:01.752Z,31.50
2023-03-23T17:25:30.248Z,45.40
2023-03-23T17:27:57.619Z,35.90
2023-03-23T17:30:33.970Z,37.10
2023-03-23T17:33:01.115Z,43.50
2023-03-23T17:35:28.077Z,29.60
2023-03-23T17:37:56.648Z,45.50
2023-03-23T17:40:23.905Z,51.20
2023-03-23T17:42:50.455Z,42.70
2023-03-23T17:45:18.207Z,51.70
2023-03-23T17:47:45.437Z,41.90
2023-03-23T17:50:17.995Z,36.80
2023-03-23T17:52:46.730Z,45.00
2023-03-23T17:55:13.458Z,39.60
2023-03-23T17:57:44.073Z,48.50
2023-03-23T18:00:12.568Z,54.60
2023-03-23T18:02:40.386Z,59.60
2023-03-23T18:05:08.656Z,63.90
2023-03-23T18:07:36.278Z,62.30
2023-03-23T18:10:10.863Z,52.40
2023-03-23T18:12:41.660Z,49.20
2023-03-23T18:15:09.075Z,41.10
2023-03-23T18:17:35.949Z,49.10
2023-03-23T18:20:03.899Z,39.60
2023-03-23T18:22:30.743Z,44.50
2023-03-23T18:24:57.809Z,52.30
2023-03-23T18:27:25.589Z,40.50
2023-03-23T18:29:52.487Z,41.20
2023-03-23T18:32:20.137Z,43.80
2023-03-23T18:34:48.077Z,40.20
2023-03-23T18:37:14.981Z,43.50
2023-03-23T18:39:41.617Z,40.60
2023-03-23T18:42:08.660Z,35.80
2023-03-23T18:44:35.456Z,43.80
2023-03-23T18:47:01.999Z,32.40
2023-03-23T18:49:29.739Z,40.20
2023-03-23T18:51:57.545Z,34.00
2023-03-23T18:54:25.156Z,30.00
2023-03-23T18:56:51.823Z,33.90
2023-03-23T18:59:19.328Z,30.80
2023-03-23T19:01:46.288Z,34.50
2023-03-23T19:04:13.863Z,33.60
2023-03-23T19:06:40.876Z,29.50
2023-03-23T19:09:07.576Z,32.70
2023-03-23T19:11:37.231Z,28.70
2023-03-23T19:14:04.526Z,31.70
2023-03-23T19:16:32.007Z,32.50
2023-03-23T19:19:01.079Z,30.00
2023-03-23T19:21:29.919Z,31.30
2023-03-23T19:23:58.070Z,29.60
2023-03-23T19:26:35.840Z,29.10
2023-03-23T19:31:36.110Z,31.60
2023-03-23T19:34:03.296Z,36.70
2023-03-23T19:36:30.874Z,37.10
2023-03-23T19:38:57.465Z,35.50
2023-03-23T19:43:52.498Z,32.10
2023-03-23T19:46:19.605Z,35.70
2023-03-23T19:48:47.234Z,34.70
2023-03-23T19:51:15.458Z,31.40
2023-03-23T19:53:42.080Z,33.60
2023-03-23T19:56:13.401Z,34.60
2023-03-23T19:58:40.720Z,27.10
2023-03-23T20:01:08.182Z,34.90
2023-03-23T20:03:36.877Z,30.60
2023-03-23T20:06:06.004Z,32.10
2023-03-23T20:11:06.072Z,29.80
2023-03-23T20:13:36.481Z,36.40
2023-03-23T20:16:03.340Z,34.00
2023-03-23T20:18:30.277Z,33.80
2023-03-23T20:21:04.805Z,35.60
2023-03-23T20:23:32.243Z,30.60
2023-03-23T20:26:14.277Z,33.20
2023-03-23T20:28:42.409Z,36.70
2023-03-23T20:31:16.814Z,31.90
2023-03-23T20:34:00.474Z,34.80
2023-03-23T20:36:36.062Z,34.70
2023-03-23T20:39:11.408Z,31.60
2023-03-23T20:41:39.612Z,36.10
2023-03-23T20:44:08.737Z,33.60
2023-03-23T20:46:38.557Z,34.30
2023-03-23T20:49:05.376Z,34.80
2023-03-23T20:51:35.412Z,30.90
2023-03-23T20:54:03.202Z,33.40
2023-03-23T20:56:30.762Z,32.40
2023-03-23T20:58:59.956Z,31.30
2023-03-23T21:01:26.888Z,32.90
2023-03-23T21:03:53.617Z,28.90
2023-03-23T21:06:20.449Z,33.80
2023-03-23T21:08:48.373Z,34.10
2023-03-23T21:11:19.389Z,34.00
2023-03-23T21:13:46.177Z,34.10
2023-03-23T21:16:13.407Z,33.70
2023-03-23T21:18:41.682Z,34.60
2023-03-23T21:21:14.193Z,33.00
2023-03-23T21:23:45.932Z,33.80
2023-03-23T21:26:15.465Z,30.20
2023-03-23T21:28:42.960Z,33.60
2023-03-23T21:31:09.594Z,30.90
2023-03-23T21:33:40.703Z,33.30
2023-03-23T21:36:08.268Z,34.30
2023-03-23T21:38:35.006Z,33.20
2023-03-23T21:41:09.935Z,35.00
2023-03-23T21:43:39.940Z,30.00
2023-03-23T21:46:13.318Z,30.80
2023-03-23T21:48:41.402Z,36.60
2023-03-23T21:51:12.026Z,32.40
2023-03-23T21:53:41.505Z,33.00
2023-03-23T21:56:11.594Z,31.90
2023-03-23T21:58:38.496Z,31.60
2023-03-23T22:01:05.691Z,31.40
2023-03-23T22:03:34.733Z,30.30
2023-03-23T22:06:16.442Z,32.40
2023-03-23T22:08:43.817Z,30.20
2023-03-23T22:11:24.703Z,28.10
2023-03-23T22:13:55.586Z,30.50
2023-03-23T22:16:23.208Z,30.10
2023-03-23T22:18:51.956Z,26.80
2023-03-23T22:21:19.323Z,31.40
2023-03-23T22:23:49.799Z,29.00
2023-03-23T22:26:16.676Z,30.90
2023-03-23T22:28:50.496Z,28.90
2023-03-23T22:31:22.938Z,28.50
2023-03-23T22:33:55.886Z,32.10
2023-03-23T22:36:24.392Z,29.80
2023-03-23T22:38:51.760Z,29.30
2023-03-23T22:41:21.883Z,29.30
2023-03-23T22:43:48.627Z,27.60
2023-03-23T22:46:15.694Z,27.20
2023-03-23T22:48:43.978Z,30.60
2023-03-23T22:51:11.606Z,28.30
2023-03-23T22:53:38.563Z,31.60
2023-03-23T22:56:08.951Z,28.20
2023-03-23T22:58:36.466Z,27.00
2023-03-23T23:01:08.322Z,27.90
2023-03-23T23:03:36.162Z,25.00
2023-03-23T23:06:02.994Z,29.70
2023-03-23T23:08:32.302Z,28.20
2023-03-23T23:11:01.072Z,28.10
2023-03-23T23:13:27.855Z,29.90
2023-03-23T23:15:56.352Z,27.10
2023-03-23T23:18:25.313Z,28.80
2023-03-23T23:20:56.947Z,27.90
2023-03-23T23:23:24.824Z,26.20
2023-03-23T23:25:51.770Z,29.70
2023-03-23T23:28:19.728Z,29.60
2023-03-23T23:30:47.541Z,26.90
2023-03-23T23:33:14.996Z,30.70
2023-03-23T23:35:42.585Z,27.70
2023-03-23T23:38:11.117Z,28.50
2023-03-23T23:40:40.607Z,27.20
2023-03-23T23:43:10.423Z,27.10
2023-03-23T23:45:37.456Z,24.90
2023-03-23T23:48:05.517Z,25.00
2023-03-23T23:50:33.100Z,28.50
2023-03-23T23:52:59.774Z,27.10
2023-03-23T23:55:26.873Z,26.20
2023-03-23T23:57:53.595Z,27.40
